createdAt,value
2023-04-30T00:04:56.212Z,11.20
2023-04-30T00:09:57.485Z,11.20
2023-04-30T00:14:58.717Z,11.24
2023-04-30T00:20:00.517Z,11.20
2023-04-30T00:25:01.785Z,11.19
2023-04-30T00:30:02.847Z,11.19
2023-04-30T00:35:04.440Z,11.19
2023-04-30T00:40:06.220Z,11.16
2023-04-30T00:45:07.849Z,11.20
2023-04-30T00:50:09.516Z,11.17
2023-04-30T00:55:12.410Z,11.16
2023-04-30T01:00:14.255Z,11.13
2023-04-30T01:05:15.734Z,11.04
2023-04-30T01:10:17.740Z,10.98
2023-04-30T01:15:21.735Z,10.96
2023-04-30T01:20:25.615Z,10.98
2023-04-30T01:25:38.895Z,10.94
2023-04-30T01:30:44.072Z,10.90
2023-04-30T01:36:23.121Z,10.84
2023-04-30T01:41:50.033Z,10.79
2023-04-30T01:47:02.030Z,10.77
2023-04-30T01:52:14.950Z,10.74
2023-04-30T01:57:23.282Z,10.77
2023-04-30T02:02:24.442Z,10.72
2023-04-30T02:07:47.500Z,10.73
2023-04-30T02:12:48.570Z,10.63
2023-04-30T02:17:49.739Z,10.41
2023-04-30T02:22:52.365Z,10.12
2023-04-30T02:27:53.330Z,9.85
2023-04-30T02:32:54.352Z,9.69
2023-04-30T02:37:55.382Z,9.61
2023-04-30T02:42:56.813Z,9.56
2023-04-30T02:47:58.186Z,9.44
2023-04-30T02:52:59.405Z,9.38
2023-04-30T02:58:00.460Z,9.31
2023-04-30T03:03:01.600Z,9.12
2023-04-30T03:08:02.803Z,8.98
2023-04-30T03:13:03.818Z,8.94
2023-04-30T03:18:05.512Z,9.02
2023-04-30T03:23:06.552Z,9.01
2023-04-30T03:28:07.599Z,8.94
2023-04-30T03:33:08.889Z,8.96
2023-04-30T03:38:10.130Z,8.87
2023-04-30T03:43:11.569Z,8.79
2023-04-30T03:48:12.651Z,8.73
2023-04-30T03:53:13.685Z,8.68
2023-04-30T03:58:15.118Z,8.68
2023-04-30T04:07:13.888Z,8.60
2023-04-30T04:12:15.851Z,8.57
2023-04-30T04:17:18.059Z,8.62
2023-04-30T04:22:19.904Z,8.61
2023-04-30T04:27:22.277Z,8.62
2023-04-30T04:32:24.739Z,8.63
2023-04-30T04:37:27.387Z,8.52
2023-04-30T04:42:29.222Z,8.54
2023-04-30T04:47:31.458Z,8.59
2023-04-30T04:52:33.406Z,8.73
2023-04-30T04:57:35.277Z,8.82
2023-04-30T05:02:37.144Z,8.86
2023-04-30T05:07:39.052Z,8.94
2023-04-30T05:12:40.794Z,8.91
2023-04-30T05:17:42.643Z,8.89
2023-04-30T05:22:44.803Z,8.94
2023-04-30T05:27:46.598Z,8.99
2023-04-30T05:32:52.049Z,9.09
2023-04-30T05:37:53.907Z,9.17
2023-04-30T05:42:56.293Z,9.27
2023-04-30T05:47:58.471Z,9.46
2023-04-30T05:53:01.034Z,9.73
2023-04-30T05:58:02.725Z,10.12
2023-04-30T06:03:04.527Z,10.54
2023-04-30T06:08:06.204Z,10.74
2023-04-30T06:13:08.045Z,10.97
2023-04-30T06:18:09.818Z,11.10
2023-04-30T06:23:11.610Z,11.28
2023-04-30T06:28:13.557Z,11.42
2023-04-30T06:33:15.586Z,11.66
2023-04-30T06:38:18.385Z,12.01
2023-04-30T06:43:20.108Z,12.30
2023-04-30T06:48:22.239Z,12.67
2023-04-30T06:53:24.031Z,12.88
2023-04-30T06:58:25.815Z,13.14
2023-04-30T07:03:28.152Z,13.25
2023-04-30T07:08:29.927Z,13.39
2023-04-30T07:13:31.640Z,13.70
2023-04-30T07:18:33.370Z,14.15
2023-04-30T07:23:35.252Z,14.52
2023-04-30T07:28:36.961Z,14.47
2023-04-30T07:33:38.634Z,14.23
2023-04-30T07:38:40.328Z,14.61
2023-04-30T07:43:42.460Z,14.84
2023-04-30T07:48:44.639Z,14.85
2023-04-30T07:53:47.113Z,14.93
2023-04-30T07:58:48.833Z,14.96
2023-04-30T08:03:50.997Z,15.46
2023-04-30T08:08:53.414Z,15.77
2023-04-30T08:13:56.018Z,15.44
2023-04-30T08:18:57.940Z,15.33
2023-04-30T08:23:59.692Z,15.44
2023-04-30T08:29:01.461Z,15.69
2023-04-30T08:34:03.200Z,16.27
2023-04-30T08:39:04.920Z,16.65
2023-04-30T08:44:08.446Z,16.48
2023-04-30T08:49:10.785Z,16.49
2023-04-30T08:54:14.204Z,16.07
2023-04-30T08:59:16.190Z,16.05
2023-04-30T09:04:18.479Z,16.55
2023-04-30T09:09:20.735Z,17.01
2023-04-30T09:14:27.282Z,17.51
2023-04-30T09:19:30.819Z,17.66
2023-04-30T09:24:47.118Z,17.76
2023-04-30T09:29:49.172Z,17.95
2023-04-30T09:34:51.288Z,17.87
2023-04-30T09:39:56.621Z,17.97
2023-04-30T09:44:58.713Z,17.48
2023-04-30T09:50:00.844Z,17.50
2023-04-30T09:55:03.156Z,17.55
2023-04-30T10:00:10.509Z,17.72
2023-04-30T10:05:12.491Z,18.11
2023-04-30T10:10:15.077Z,18.04
2023-04-30T10:15:27.359Z,17.91
2023-04-30T10:20:30.541Z,17.57
2023-04-30T10:25:32.946Z,17.52
2023-04-30T10:30:38.199Z,17.65
2023-04-30T10:35:49.883Z,17.96
2023-04-30T10:40:57.609Z,17.77
2023-04-30T10:46:00.274Z,17.51
2023-04-30T10:51:02.182Z,17.87
2023-04-30T10:56:09.283Z,18.12
2023-04-30T11:01:15.725Z,18.61
2023-04-30T11:06:20.396Z,18.28
2023-04-30T11:11:23.819Z,18.24
2023-04-30T11:16:35.089Z,18.68
2023-04-30T11:22:03.036Z,19.21
2023-04-30T11:27:06.268Z,19.43
2023-04-30T11:32:08.515Z,19.10
2023-04-30T11:37:13.956Z,18.98
2023-04-30T11:42:20.192Z,18.52
2023-04-30T11:47:21.927Z,18.60
2023-04-30T11:52:25.822Z,18.97
2023-04-30T11:57:35.030Z,19.08
2023-04-30T12:02:36.878Z,18.99
2023-04-30T12:07:39.883Z,18.96
2023-04-30T12:12:44.019Z,19.13
2023-04-30T12:17:47.078Z,19.61
2023-04-30T12:22:49.834Z,20.02
2023-04-30T12:27:53.274Z,20.03
2023-04-30T12:32:58.638Z,19.98
2023-04-30T12:38:06.016Z,19.82
2023-04-30T12:43:09.426Z,19.93
2023-04-30T12:48:11.958Z,19.99
2023-04-30T12:53:13.828Z,20.32
2023-04-30T12:58:16.735Z,20.91
2023-04-30T13:03:21.497Z,21.15
2023-04-30T13:08:23.622Z,20.99
2023-04-30T13:13:26.209Z,21.37
2023-04-30T13:18:28.354Z,21.77
2023-04-30T13:23:31.943Z,21.63
2023-04-30T13:28:35.545Z,21.47
2023-04-30T13:33:37.822Z,21.79
2023-04-30T13:38:39.715Z,21.96
2023-04-30T13:43:43.068Z,22.35
2023-04-30T13:48:48.208Z,22.29
2023-04-30T13:53:50.093Z,22.38
2023-04-30T13:58:52.372Z,22.20
2023-04-30T14:03:54.754Z,21.75
2023-04-30T14:08:57.340Z,21.89
2023-04-30T14:13:59.026Z,22.23
2023-04-30T14:19:00.945Z,22.37
2023-04-30T14:24:02.982Z,22.20
2023-04-30T14:29:04.710Z,22.23
2023-04-30T14:34:06.450Z,22.20
2023-04-30T14:39:08.938Z,22.22
2023-04-30T14:44:10.698Z,21.64
2023-04-30T14:49:12.806Z,21.22
2023-04-30T14:54:14.665Z,21.70
2023-04-30T14:59:16.625Z,22.17
2023-04-30T15:04:18.384Z,21.92
2023-04-30T15:09:20.184Z,21.36
2023-04-30T15:14:21.887Z,20.88
2023-04-30T15:19:24.457Z,20.91
2023-04-30T15:24:26.130Z,21.12
2023-04-30T15:29:27.936Z,21.33
2023-04-30T15:34:29.645Z,21.53
2023-04-30T15:39:31.815Z,21.46
2023-04-30T15:44:33.551Z,21.59
2023-04-30T15:49:35.515Z,21.70
2023-04-30T15:54:37.234Z,21.67
2023-04-30T15:59:38.889Z,21.68
2023-04-30T16:04:41.722Z,21.76
2023-04-30T16:09:45.801Z,21.88
2023-04-30T16:14:47.577Z,21.96
2023-04-30T16:19:49.327Z,22.33
2023-04-30T16:24:51.370Z,22.38
2023-04-30T16:29:53.533Z,22.23
2023-04-30T16:34:55.850Z,22.39
2023-04-30T16:39:57.922Z,22.29
2023-04-30T16:44:59.925Z,22.22
2023-04-30T16:50:02.782Z,22.30
2023-04-30T16:55:05.521Z,22.50
2023-04-30T17:00:14.254Z,22.72
2023-04-30T17:05:16.275Z,22.59
2023-04-30T17:10:19.660Z,22.47
2023-04-30T17:15:21.844Z,21.89
2023-04-30T17:20:23.765Z,20.74
2023-04-30T17:25:25.495Z,19.66
2023-04-30T17:30:28.334Z,18.96
2023-04-30T17:35:30.004Z,18.57
2023-04-30T17:40:33.173Z,18.32
2023-04-30T17:45:35.013Z,17.93
2023-04-30T17:50:36.986Z,17.35
2023-04-30T17:55:38.908Z,16.48
2023-04-30T18:00:42.216Z,15.60
2023-04-30T18:05:45.108Z,14.80
2023-04-30T18:10:48.020Z,14.12
2023-04-30T18:15:49.860Z,13.49
2023-04-30T18:20:53.080Z,12.98
2023-04-30T18:25:54.936Z,12.52
2023-04-30T18:30:56.989Z,12.09
2023-04-30T18:36:01.483Z,11.70
2023-04-30T18:41:05.124Z,11.35
2023-04-30T18:46:06.840Z,11.03
2023-04-30T18:51:08.783Z,10.73
2023-04-30T18:56:11.795Z,10.45
2023-04-30T19:01:13.660Z,10.15
2023-04-30T19:06:15.697Z,9.89
2023-04-30T19:11:17.638Z,9.62
2023-04-30T19:16:19.449Z,9.35
2023-04-30T19:21:21.492Z,9.10
2023-04-30T19:26:25.660Z,8.89
2023-04-30T19:31:27.394Z,8.70
2023-04-30T19:36:29.340Z,8.54
2023-04-30T19:41:31.169Z,8.38
2023-04-30T19:46:32.915Z,8.25
2023-04-30T19:51:35.160Z,8.12
2023-04-30T19:56:36.877Z,8.02
2023-04-30T20:01:38.739Z,7.93
2023-04-30T20:06:40.534Z,7.86
2023-04-30T20:11:42.368Z,7.80
2023-04-30T20:16:44.438Z,7.76
2023-04-30T20:21:48.382Z,7.70
2023-04-30T20:26:50.675Z,7.65
2023-04-30T20:31:52.953Z,7.58
2023-04-30T20:36:55.265Z,7.46
2023-04-30T20:41:59.011Z,7.32
2023-04-30T20:47:02.933Z,7.16
2023-04-30T20:52:05.752Z,7.00
2023-04-30T20:57:08.301Z,7.00
2023-04-30T21:02:10.323Z,7.33
2023-04-30T21:07:12.286Z,7.47
2023-04-30T21:12:14.625Z,7.52
2023-04-30T21:17:16.321Z,7.55
2023-04-30T21:22:18.203Z,7.53
2023-04-30T21:27:21.062Z,7.50
2023-04-30T21:32:23.036Z,7.45
2023-04-30T21:37:24.801Z,7.46
2023-04-30T21:42:27.551Z,7.45
2023-04-30T21:47:30.844Z,7.40
2023-04-30T21:52:34.624Z,7.32
2023-04-30T21:57:36.649Z,7.28
2023-04-30T22:02:38.323Z,7.23
2023-04-30T22:07:40.780Z,7.16
2023-04-30T22:12:45.403Z,7.05
2023-04-30T22:17:49.597Z,6.94
2023-04-30T22:22:52.744Z,6.88
2023-04-30T22:27:54.513Z,6.76
2023-04-30T22:32:56.914Z,6.63
2023-04-30T22:37:59.267Z,6.59
2023-04-30T22:43:01.997Z,6.48
2023-04-30T22:48:04.793Z,6.34
2023-04-30T22:53:07.023Z,6.17
2023-04-30T22:58:08.745Z,6.00
2023-04-30T23:03:11.419Z,5.86
2023-04-30T23:08:13.236Z,5.76
2023-04-30T23:13:21.445Z,5.69
2023-04-30T23:18:24.041Z,5.63
2023-04-30T23:23:26.716Z,5.60
2023-04-30T23:28:28.440Z,5.59
2023-04-30T23:33:30.268Z,5.57
2023-04-30T23:38:32.598Z,5.53
2023-04-30T23:43:35.129Z,5.52
2023-04-30T23:48:39.050Z,5.50
2023-04-30T23:53:40.783Z,5.45
2023-04-30T23:58:42.642Z,5.41
